createdAt,value
2022-09-07T00:00:26.640Z,5.07
2022-09-07T00:02:53.377Z,4.88
2022-09-07T00:05:20.172Z,5.13
2022-09-07T00:07:46.904Z,4.63
2022-09-07T00:10:13.715Z,4.28
2022-09-07T00:12:40.501Z,4.22
2022-09-07T00:15:11.491Z,3.95
2022-09-07T00:17:38.572Z,3.67
2022-09-07T00:20:07.496Z,3.85
2022-09-07T00:22:34.414Z,3.38
2022-09-07T00:25:01.115Z,2.50
2022-09-07T00:27:27.961Z,2.38
2022-09-07T00:29:54.827Z,2.30
2022-09-07T00:32:21.572Z,2.15
2022-09-07T00:34:49.780Z,2.30
2022-09-07T00:37:16.812Z,2.30
2022-09-07T00:39:43.586Z,2.10
2022-09-07T00:42:10.395Z,2.30
2022-09-07T00:44:43.348Z,2.80
2022-09-07T00:47:20.593Z,2.90
2022-09-07T00:49:51.836Z,3.05
2022-09-07T00:52:21.753Z,3.22
2022-09-07T00:54:55.570Z,3.67
2022-09-07T00:57:23.121Z,3.42
2022-09-07T00:59:52.652Z,3.85
2022-09-07T01:02:20.150Z,4.13
2022-09-07T01:04:51.800Z,3.88
2022-09-07T01:07:19.020Z,3.25
2022-09-07T01:09:47.281Z,3.03
2022-09-07T01:12:14.300Z,3.10
2022-09-07T01:14:45.083Z,3.22
2022-09-07T01:17:51.020Z,3.22
2022-09-07T01:20:28.076Z,3.20
2022-09-07T01:23:16.460Z,2.90
2022-09-07T01:25:55.509Z,2.63
2022-09-07T01:28:28.523Z,2.90
2022-09-07T01:31:20.405Z,2.75
2022-09-07T01:33:47.377Z,2.20
2022-09-07T01:36:36.941Z,1.98
2022-09-07T01:39:05.996Z,2.30
2022-09-07T01:41:53.022Z,1.90
2022-09-07T01:44:42.025Z,1.73
2022-09-07T01:47:15.918Z,1.50
2022-09-07T01:49:47.547Z,1.50
2022-09-07T01:52:21.711Z,1.75
2022-09-07T01:54:56.068Z,1.95
2022-09-07T01:57:33.343Z,2.00
2022-09-07T02:00:11.532Z,1.90
2022-09-07T02:02:53.602Z,1.95
2022-09-07T02:05:45.196Z,1.90
2022-09-07T02:08:43.152Z,2.30
2022-09-07T02:11:24.098Z,2.20
2022-09-07T02:14:06.461Z,2.22
2022-09-07T02:16:37.228Z,1.92
2022-09-07T02:19:08.816Z,1.80
2022-09-07T02:21:40.421Z,2.10
2022-09-07T02:24:23.443Z,1.98
2022-09-07T02:26:54.521Z,1.83
2022-09-07T02:29:21.536Z,1.80
2022-09-07T02:31:50.100Z,1.90
2022-09-07T02:34:16.993Z,2.00
2022-09-07T02:36:50.280Z,2.08
2022-09-07T02:39:17.645Z,2.20
2022-09-07T02:41:45.358Z,2.42
2022-09-07T02:44:31.415Z,2.42
2022-09-07T02:47:12.345Z,2.50
2022-09-07T02:50:01.132Z,2.60
2022-09-07T02:52:43.173Z,2.70
2022-09-07T02:55:22.046Z,2.50
2022-09-07T02:58:03.724Z,2.72
2022-09-07T03:01:00.318Z,2.78
2022-09-07T03:03:39.835Z,2.70
2022-09-07T03:06:26.523Z,2.40
2022-09-07T03:08:56.322Z,2.30
2022-09-07T03:11:23.369Z,4.00
2022-09-07T03:13:50.272Z,2.28
2022-09-07T03:16:17.015Z,2.45
2022-09-07T03:18:44.280Z,2.55
2022-09-07T03:21:11.611Z,2.30
2022-09-07T03:23:38.865Z,2.20
2022-09-07T03:26:05.732Z,2.35
2022-09-07T03:28:32.581Z,2.17
2022-09-07T03:31:02.231Z,2.20
2022-09-07T03:33:29.065Z,2.20
2022-09-07T03:36:01.245Z,1.88
2022-09-07T03:38:28.044Z,1.98
2022-09-07T03:40:59.741Z,2.00
2022-09-07T03:43:26.760Z,2.20
2022-09-07T03:46:01.370Z,2.03
2022-09-07T03:48:32.742Z,2.10
2022-09-07T03:51:08.361Z,2.05
2022-09-07T03:53:40.694Z,2.00
2022-09-07T03:56:16.442Z,1.92
2022-09-07T03:58:43.141Z,1.90
2022-09-07T04:01:16.213Z,1.70
2022-09-07T04:03:43.965Z,2.15
2022-09-07T04:06:11.392Z,1.58
2022-09-07T04:08:39.381Z,1.83
2022-09-07T04:11:08.456Z,1.83
2022-09-07T04:13:36.689Z,2.20
2022-09-07T04:16:14.288Z,1.90
2022-09-07T04:18:41.884Z,1.90
2022-09-07T04:21:09.445Z,1.90
2022-09-07T04:23:40.502Z,1.90
2022-09-07T04:26:12.689Z,1.83
2022-09-07T04:28:39.393Z,1.92
2022-09-07T04:31:06.483Z,2.20
2022-09-07T04:33:33.650Z,2.38
2022-09-07T04:36:01.844Z,2.60
2022-09-07T04:38:29.596Z,2.75
2022-09-07T04:41:00.852Z,2.55
2022-09-07T04:43:31.129Z,2.53
2022-09-07T04:46:01.501Z,2.78
2022-09-07T04:48:28.226Z,2.25
2022-09-07T04:50:55.001Z,2.70
2022-09-07T04:53:21.685Z,2.85
2022-09-07T04:55:48.433Z,3.22
2022-09-07T04:58:15.579Z,3.15
2022-09-07T05:00:42.469Z,3.50
2022-09-07T05:03:09.405Z,3.53
2022-09-07T05:05:38.026Z,3.55
2022-09-07T05:08:04.813Z,3.67
2022-09-07T05:10:31.896Z,3.75
2022-09-07T05:12:58.807Z,3.42
2022-09-07T05:15:25.511Z,3.95
2022-09-07T05:17:52.208Z,3.78
2022-09-07T05:20:20.487Z,3.63
2022-09-07T05:22:47.880Z,3.65
2022-09-07T05:25:15.040Z,3.50
2022-09-07T05:27:41.939Z,3.90
2022-09-07T05:32:56.505Z,4.07
2022-09-07T05:35:23.185Z,4.15
2022-09-07T05:37:50.815Z,3.95
2022-09-07T05:40:18.228Z,3.97
2022-09-07T05:42:45.021Z,4.00
2022-09-07T05:45:12.089Z,3.92
2022-09-07T05:47:39.381Z,4.07
2022-09-07T05:50:08.091Z,3.95
2022-09-07T05:52:36.031Z,4.25
2022-09-07T05:55:26.209Z,5.00
2022-09-07T05:57:49.868Z,4.50
2022-09-07T06:00:16.722Z,4.28
2022-09-07T06:02:43.493Z,4.57
2022-09-07T06:05:11.362Z,4.90
2022-09-07T06:07:38.270Z,4.43
2022-09-07T06:12:55.021Z,4.63
2022-09-07T06:15:22.415Z,5.20
2022-09-07T06:17:49.119Z,5.20
2022-09-07T06:20:16.058Z,4.90
2022-09-07T06:22:43.022Z,5.15
2022-09-07T06:25:09.769Z,4.55
2022-09-07T06:27:36.469Z,5.00
2022-09-07T06:30:04.137Z,4.63
2022-09-07T06:32:46.398Z,4.93
2022-09-07T06:35:14.626Z,4.60
2022-09-07T06:37:41.656Z,4.82
2022-09-07T06:40:10.586Z,5.30
2022-09-07T06:42:37.951Z,5.85
2022-09-07T06:45:05.197Z,5.75
2022-09-07T06:47:31.865Z,6.20
2022-09-07T06:49:59.164Z,6.70
2022-09-07T06:52:25.984Z,8.10
2022-09-07T06:57:22.637Z,7.47
2022-09-07T06:59:49.349Z,7.85
2022-09-07T07:02:16.048Z,8.63
2022-09-07T07:04:42.814Z,7.22
2022-09-07T07:07:14.285Z,8.25
2022-09-07T07:09:41.910Z,8.30
2022-09-07T07:12:10.013Z,7.55
2022-09-07T07:14:39.588Z,8.15
2022-09-07T07:17:07.966Z,8.07
2022-09-07T07:19:34.663Z,8.00
2022-09-07T07:22:14.384Z,7.90
2022-09-07T07:24:48.085Z,8.45
2022-09-07T07:27:14.805Z,8.98
2022-09-07T07:29:41.498Z,8.57
2022-09-07T07:32:08.230Z,9.32
2022-09-07T07:35:12.621Z,9.75
2022-09-07T07:37:39.811Z,9.02
2022-09-07T07:40:19.115Z,8.68
2022-09-07T07:42:50.255Z,8.85
2022-09-07T07:48:04.010Z,6.85
2022-09-07T07:50:31.728Z,7.30
2022-09-07T07:55:50.360Z,7.00
2022-09-07T07:58:17.611Z,7.63
2022-09-07T08:00:54.436Z,7.72
2022-09-07T08:03:23.076Z,7.75
2022-09-07T08:05:49.793Z,8.30
2022-09-07T08:08:16.577Z,8.48
2022-09-07T08:10:43.784Z,10.02
2022-09-07T08:13:10.497Z,11.48
2022-09-07T08:15:44.540Z,11.15
2022-09-07T08:18:12.487Z,10.95
2022-09-07T08:20:42.837Z,11.35
2022-09-07T08:23:09.560Z,11.05
2022-09-07T08:25:36.733Z,11.20
2022-09-07T08:28:04.160Z,11.63
2022-09-07T08:30:30.889Z,11.10
2022-09-07T08:32:57.841Z,11.18
2022-09-07T08:35:24.869Z,11.10
2022-09-07T08:37:51.587Z,11.18
2022-09-07T08:40:19.489Z,10.35
2022-09-07T08:43:08.272Z,11.10
2022-09-07T08:45:48.775Z,10.35
2022-09-07T08:48:21.030Z,9.30
2022-09-07T08:51:02.899Z,9.75
2022-09-07T08:53:30.303Z,8.88
2022-09-07T08:56:11.973Z,9.70
2022-09-07T08:58:49.235Z,8.63
2022-09-07T09:01:35.514Z,8.82
2022-09-07T09:04:19.621Z,7.93
2022-09-07T09:07:06.258Z,7.30
2022-09-07T09:10:11.094Z,7.28
2022-09-07T09:12:58.178Z,7.03
2022-09-07T09:15:41.183Z,6.60
2022-09-07T09:18:29.229Z,7.60
2022-09-07T09:20:57.720Z,7.32
2022-09-07T09:23:27.257Z,6.13
2022-09-07T09:26:01.432Z,6.43
2022-09-07T09:28:31.728Z,6.20
2022-09-07T09:30:59.363Z,6.25
2022-09-07T09:33:29.045Z,5.85
2022-09-07T09:36:01.041Z,5.53
2022-09-07T09:38:39.508Z,5.50
2022-09-07T09:41:14.973Z,5.25
2022-09-07T09:43:57.285Z,4.90
2022-09-07T09:46:32.823Z,3.83
2022-09-07T09:49:16.048Z,3.25
2022-09-07T09:54:40.705Z,3.15
2022-09-07T09:57:14.943Z,2.80
2022-09-07T10:00:00.361Z,3.00
2022-09-07T10:05:33.401Z,3.45
2022-09-07T10:08:00.523Z,3.50
2022-09-07T10:10:29.552Z,3.80
2022-09-07T10:12:57.067Z,3.00
2022-09-07T10:15:33.678Z,3.13
2022-09-07T10:18:10.109Z,3.00
2022-09-07T10:20:38.240Z,3.28
2022-09-07T10:23:06.795Z,4.07
2022-09-07T10:25:36.378Z,4.18
2022-09-07T10:28:12.746Z,2.90
2022-09-07T10:31:11.131Z,2.58
2022-09-07T10:37:03.105Z,2.53
2022-09-07T10:39:36.252Z,2.92
2022-09-07T10:42:09.184Z,2.35
2022-09-07T10:45:08.036Z,2.28
2022-09-07T10:47:55.047Z,2.20
2022-09-07T10:50:32.419Z,1.52
2022-09-07T10:53:38.968Z,1.60
2022-09-07T10:56:04.285Z,1.80
2022-09-07T11:01:52.298Z,1.85
2022-09-07T11:04:24.881Z,1.38
2022-09-07T11:07:01.773Z,1.65
2022-09-07T11:09:48.289Z,1.63
2022-09-07T11:12:28.133Z,1.30
2022-09-07T11:15:13.375Z,1.55
2022-09-07T11:17:52.582Z,1.60
2022-09-07T11:20:22.603Z,1.30
2022-09-07T11:23:14.598Z,1.30
2022-09-07T11:26:00.299Z,1.40
2022-09-07T11:28:34.518Z,1.30
2022-09-07T11:31:13.679Z,1.20
2022-09-07T11:37:06.505Z,1.45
2022-09-07T11:39:46.727Z,1.30
2022-09-07T11:42:43.196Z,1.00
2022-09-07T11:45:33.483Z,1.60
2022-09-07T11:48:32.468Z,1.50
2022-09-07T11:51:04.680Z,1.40
2022-09-07T11:53:36.721Z,1.20
2022-09-07T11:56:09.750Z,1.50
2022-09-07T11:58:36.428Z,1.40
2022-09-07T12:01:28.645Z,1.55
2022-09-07T12:04:16.414Z,1.65
2022-09-07T12:07:01.881Z,1.50
2022-09-07T12:09:35.230Z,1.60
2022-09-07T12:12:24.034Z,1.55
2022-09-07T12:15:16.161Z,1.27
2022-09-07T12:18:03.425Z,1.23
2022-09-07T12:20:40.566Z,1.30
2022-09-07T12:23:16.292Z,1.30
2022-09-07T12:25:45.463Z,1.30
2022-09-07T12:28:24.504Z,0.88
2022-09-07T12:31:02.411Z,1.30
2022-09-07T12:33:37.797Z,1.00
2022-09-07T12:36:26.128Z,1.27
2022-09-07T12:39:20.942Z,1.45
2022-09-07T12:42:31.893Z,1.33
2022-09-07T12:44:38.353Z,1.58
2022-09-07T12:47:29.507Z,1.70
2022-09-07T12:50:06.458Z,1.45
2022-09-07T12:52:33.072Z,1.70
2022-09-07T12:55:34.223Z,1.63
2022-09-07T12:58:35.167Z,1.42
2022-09-07T13:01:27.147Z,1.50
2022-09-07T13:04:18.405Z,1.80
2022-09-07T13:07:03.761Z,1.70
2022-09-07T13:09:39.139Z,2.20
2022-09-07T13:15:41.906Z,1.60
2022-09-07T13:18:28.912Z,1.98
2022-09-07T13:21:07.985Z,1.92
2022-09-07T13:23:35.791Z,2.10
2022-09-07T13:26:05.679Z,2.22
2022-09-07T13:28:57.169Z,2.10
2022-09-07T13:31:57.624Z,2.40
2022-09-07T13:34:36.194Z,2.10
2022-09-07T13:37:05.595Z,1.83
2022-09-07T13:39:43.225Z,2.30
2022-09-07T13:42:35.493Z,2.27
2022-09-07T13:45:07.753Z,2.70
2022-09-07T13:48:15.760Z,2.30
2022-09-07T13:50:53.121Z,2.30
2022-09-07T13:53:34.466Z,2.28
2022-09-07T13:56:17.044Z,2.40
2022-09-07T13:58:48.505Z,2.75
2022-09-07T14:01:21.195Z,2.10
2022-09-07T14:03:53.364Z,2.10
2022-09-07T14:06:23.088Z,1.83
2022-09-07T14:08:55.492Z,2.10
2022-09-07T14:11:25.565Z,1.80
2022-09-07T14:14:26.120Z,1.63
2022-09-07T14:17:06.216Z,1.60
2022-09-07T14:19:49.156Z,1.90
2022-09-07T14:22:17.326Z,1.83
2022-09-07T14:24:50.336Z,1.90
2022-09-07T14:27:37.229Z,1.65
2022-09-07T14:30:24.439Z,1.70
2022-09-07T14:33:13.364Z,1.63
2022-09-07T14:35:41.261Z,1.80
2022-09-07T14:39:04.009Z,1.60
2022-09-07T14:41:12.633Z,1.77
2022-09-07T14:43:52.080Z,1.60
2022-09-07T14:46:34.011Z,1.70
2022-09-07T14:49:05.912Z,1.40
2022-09-07T14:51:36.651Z,1.60
2022-09-07T14:54:08.000Z,1.33
2022-09-07T14:56:40.772Z,1.40
2022-09-07T14:59:43.563Z,1.38
2022-09-07T15:02:26.285Z,1.60
2022-09-07T15:05:15.060Z,1.38
2022-09-07T15:08:03.937Z,1.83
2022-09-07T15:10:41.265Z,1.42
2022-09-07T15:13:32.337Z,1.27
2022-09-07T15:16:02.227Z,1.13
2022-09-07T15:18:54.897Z,1.40
2022-09-07T15:21:27.208Z,1.20
2022-09-07T15:23:57.007Z,1.20
2022-09-07T15:29:13.970Z,1.40
2022-09-07T15:31:43.365Z,1.25
2022-09-07T15:34:14.333Z,1.50
2022-09-07T15:36:43.552Z,1.42
2022-09-07T15:39:25.288Z,2.08
2022-09-07T15:41:52.774Z,1.40
2022-09-07T15:44:24.890Z,1.67
2022-09-07T15:49:47.476Z,1.77
2022-09-07T15:52:17.150Z,1.60
2022-09-07T15:54:43.922Z,1.80
2022-09-07T15:59:58.544Z,1.42
2022-09-07T16:05:12.246Z,1.90
2022-09-07T16:10:31.124Z,1.80
2022-09-07T16:13:03.217Z,1.85
2022-09-07T16:15:46.609Z,2.08
2022-09-07T16:18:18.078Z,2.13
2022-09-07T16:20:44.921Z,2.13
2022-09-07T16:23:14.662Z,1.92
2022-09-07T16:25:43.250Z,1.75
2022-09-07T16:28:10.496Z,1.60
2022-09-07T16:30:40.894Z,1.73
2022-09-07T16:33:08.470Z,1.63
2022-09-07T16:35:35.228Z,2.20
2022-09-07T16:40:50.665Z,1.73
2022-09-07T16:43:17.432Z,1.55
2022-09-07T16:48:35.569Z,1.20
2022-09-07T16:51:06.453Z,1.50
2022-09-07T16:53:35.895Z,1.45
2022-09-07T16:56:16.533Z,1.42
2022-09-07T16:58:49.141Z,1.70
2022-09-07T17:01:18.618Z,1.70
2022-09-07T17:03:45.576Z,1.73
2022-09-07T17:06:13.842Z,1.77
2022-09-07T17:08:41.427Z,1.55
2022-09-07T17:11:10.719Z,1.67
2022-09-07T17:13:39.821Z,1.83
2022-09-07T17:16:11.046Z,1.70
2022-09-07T17:21:28.234Z,1.50
2022-09-07T17:23:55.921Z,1.50
2022-09-07T17:26:26.908Z,1.90
2022-09-07T17:28:56.548Z,1.60
2022-09-07T17:34:16.783Z,5.22
2022-09-07T17:36:43.440Z,3.03
2022-09-07T17:39:14.254Z,2.47
2022-09-07T17:41:41.997Z,1.88
2022-09-07T17:44:08.770Z,1.60
2022-09-07T17:46:36.208Z,1.77
2022-09-07T17:49:03.544Z,1.67
2022-09-07T17:51:32.779Z,2.15
2022-09-07T17:54:09.623Z,2.08
2022-09-07T17:56:37.036Z,2.25
2022-09-07T18:01:50.907Z,2.30
2022-09-07T18:04:18.013Z,2.05
2022-09-07T18:06:44.716Z,2.45
2022-09-07T18:09:13.982Z,2.50
2022-09-07T18:11:45.416Z,2.78
2022-09-07T18:14:14.920Z,2.92
2022-09-07T18:16:43.507Z,3.15
2022-09-07T18:19:11.391Z,3.15
2022-09-07T18:21:40.906Z,2.50
2022-09-07T18:24:16.717Z,2.67
2022-09-07T18:26:44.688Z,2.90
2022-09-07T18:29:28.268Z,2.30
2022-09-07T18:31:56.362Z,2.30
2022-09-07T18:34:23.364Z,2.08
2022-09-07T18:36:50.462Z,2.35
2022-09-07T18:39:17.486Z,2.25
2022-09-07T18:41:44.150Z,4.75
2022-09-07T18:46:57.487Z,4.63
2022-09-07T18:49:25.036Z,3.78
2022-09-07T18:54:41.414Z,3.63
2022-09-07T18:57:08.386Z,3.63
2022-09-07T18:59:35.350Z,3.92
2022-09-07T19:02:04.954Z,3.60
2022-09-07T19:07:20.838Z,4.07
2022-09-07T19:09:48.261Z,4.00
2022-09-07T19:12:15.718Z,4.07
2022-09-07T19:14:42.546Z,4.07
2022-09-07T19:17:11.733Z,4.35
2022-09-07T19:19:39.349Z,4.70
2022-09-07T19:22:06.096Z,5.22
2022-09-07T19:24:33.283Z,4.20
2022-09-07T19:27:00.904Z,4.55
2022-09-07T19:29:28.397Z,4.68
2022-09-07T19:32:04.487Z,4.70
2022-09-07T19:34:32.776Z,5.00
2022-09-07T19:37:00.526Z,4.70
2022-09-07T19:39:27.405Z,4.75
2022-09-07T19:41:54.437Z,4.68
2022-09-07T19:44:21.119Z,4.70
2022-09-07T19:46:48.197Z,5.20
2022-09-07T19:49:15.100Z,5.10
2022-09-07T19:51:42.886Z,4.80
2022-09-07T19:54:10.446Z,4.45
2022-09-07T19:56:38.624Z,4.78
2022-09-07T19:59:05.461Z,4.70
2022-09-07T20:01:32.361Z,4.93
2022-09-07T20:04:03.287Z,4.93
2022-09-07T20:06:32.766Z,4.93
2022-09-07T20:09:01.276Z,5.75
2022-09-07T20:11:31.195Z,5.72
2022-09-07T20:13:58.032Z,5.25
2022-09-07T20:16:25.684Z,5.93
2022-09-07T20:18:52.448Z,5.30
2022-09-07T20:21:23.947Z,5.70
2022-09-07T20:23:51.168Z,6.03
2022-09-07T20:26:20.681Z,6.00
2022-09-07T20:29:01.923Z,6.32
2022-09-07T20:31:39.030Z,6.22
2022-09-07T20:34:05.714Z,6.18
2022-09-07T20:36:32.386Z,6.10
2022-09-07T20:38:59.043Z,6.10
2022-09-07T20:41:32.128Z,6.07
2022-09-07T20:44:00.194Z,6.22
2022-09-07T20:46:28.858Z,6.72
2022-09-07T20:48:56.058Z,6.45
2022-09-07T20:51:23.012Z,6.25
2022-09-07T20:53:50.361Z,6.68
2022-09-07T20:56:27.900Z,6.38
2022-09-07T20:59:02.940Z,6.55
2022-09-07T21:01:31.910Z,6.32
2022-09-07T21:04:00.769Z,6.00
2022-09-07T21:06:29.255Z,5.97
2022-09-07T21:08:59.669Z,6.82
2022-09-07T21:11:32.639Z,6.80
2022-09-07T21:14:08.601Z,6.75
2022-09-07T21:16:36.961Z,6.40
2022-09-07T21:19:06.115Z,6.63
2022-09-07T21:22:29.365Z,4.80
2022-09-07T21:24:55.999Z,5.80
2022-09-07T21:27:22.892Z,5.22
2022-09-07T21:29:49.553Z,5.45
2022-09-07T21:32:16.233Z,5.63
2022-09-07T21:34:42.894Z,6.43
2022-09-07T21:37:09.637Z,6.10
2022-09-07T21:39:36.337Z,5.25
2022-09-07T21:42:04.409Z,5.53
2022-09-07T21:44:31.081Z,6.10
2022-09-07T21:46:57.864Z,6.10
2022-09-07T21:49:24.722Z,6.40
2022-09-07T21:51:51.413Z,6.30
2022-09-07T21:54:18.186Z,6.22
2022-09-07T21:56:46.812Z,5.90
2022-09-07T21:59:13.911Z,5.72
2022-09-07T22:01:41.031Z,5.40
2022-09-07T22:04:08.273Z,5.10
2022-09-07T22:06:35.802Z,5.20
2022-09-07T22:09:03.982Z,5.03
2022-09-07T22:11:30.981Z,4.63
2022-09-07T22:14:01.561Z,5.00
2022-09-07T22:16:28.839Z,4.88
2022-09-07T22:18:55.908Z,4.47
2022-09-07T22:21:24.827Z,4.38
2022-09-07T22:23:54.401Z,4.95
2022-09-07T22:26:23.233Z,5.00
2022-09-07T22:28:50.617Z,4.32
2022-09-07T22:31:23.243Z,4.15
2022-09-07T22:33:52.096Z,4.30
2022-09-07T22:36:23.044Z,4.22
2022-09-07T22:38:52.594Z,4.60
2022-09-07T22:41:24.996Z,4.40
2022-09-07T22:43:51.763Z,4.30
2022-09-07T22:46:20.736Z,4.70
2022-09-07T22:48:47.540Z,4.53
2022-09-07T22:51:14.759Z,5.30
2022-09-07T22:53:42.899Z,4.95
2022-09-07T22:56:15.038Z,4.82
2022-09-07T22:58:50.236Z,4.95
2022-09-07T23:01:17.121Z,4.50
2022-09-07T23:03:44.873Z,4.30
2022-09-07T23:06:28.444Z,4.88
2022-09-07T23:08:57.453Z,4.45
2022-09-07T23:11:25.106Z,4.63
2022-09-07T23:13:53.507Z,4.70
2022-09-07T23:16:20.962Z,4.80
2022-09-07T23:18:48.249Z,4.93
2022-09-07T23:21:15.488Z,4.82
2022-09-07T23:23:42.379Z,4.57
2022-09-07T23:26:09.594Z,4.35
2022-09-07T23:28:36.720Z,4.40
2022-09-07T23:31:03.477Z,4.93
2022-09-07T23:33:30.770Z,5.00
2022-09-07T23:36:00.213Z,4.82
2022-09-07T23:38:28.174Z,5.43
2022-09-07T23:40:57.660Z,5.15
2022-09-07T23:43:27.288Z,5.38
2022-09-07T23:45:54.844Z,5.43
2022-09-07T23:48:22.535Z,5.60
2022-09-07T23:50:49.554Z,6.20
2022-09-07T23:53:16.679Z,5.80
2022-09-07T23:55:43.430Z,5.70
2022-09-07T23:58:10.944Z,5.80
